Aérodrome :
LOGIN :

S'inscrire | Disclaimer

   EN    FR    IT 

 










Légende :    VFR   VFR Marginal   IFR   IFR Intensif   IFR Très Intensif
Visi : 
Plafond : 
>= 8 km
>= 3000ft
5 à 8 km
1000 à 3000 ft
1500m à 5 km
500 à 1000 ft
800 à 1500m
200 à 500 ft
< 800m
< 200 ft
Symboles :   Orages  Brouillard  Fortes neiges  Fortes précipitations  Vent > 20 kt
SIGMETs :   Divers  Orages  Givrage  Turbulence  Onde Orograph.  Cendres Volcan.







- Altitude de l'aérodrome : 72 ft
- Code IATA : UDE


EHVK - Volkel Airbase

DERNIER METAR :
  • 221755Z AUTO 29004KT 260V330 9999 FEW077 SCT082 20/14 Q1009 BLU

METARs EXPIRÉS :
  • 221725Z AUTO 30006KT 260V350 9999 OVC270 21/15 Q1008 RETS BLU
  • 221655Z AUTO 25005KT 220V280 9999 TS FEW015CB BKN053 BKN060 20/16 Q1008 RERA BLU
  • 221633Z AUTO 28006KT 230V320 9999 TSRA FEW003 FEW018CB SCT050 BKN057 20/15 Q1008 BLU
  • 221632Z AUTO 27007KT 230V340 6000 TSRA FEW020CB BKN057 BKN067 20/15 Q1008 WHT
  • 221625Z AUTO 27007KT 210V340 9999 -TSRA FEW024CB SCT061 BKN067 OVC075 21/15 Q1008 BLU
  • 221614Z AUTO 27004KT 220V340 9999 -TSRA FEW024CB BKN062 BKN067 OVC073 21/15 Q1008 BLU
  • 221601Z AUTO 28003KT 250V030 9999 -TSRA SCT024CB SCT061 BKN076 21/15 Q1008 WHT
  • 221555Z AUTO 28006KT 250V010 9999 -TSRA FEW025 SCT027CB BKN062 21/14 Q1008 RERA BLU
  • 221525Z AUTO 20009KT 170V250 9999 TS FEW059CB SCT092 BKN098 26/11 Q1007 BLU

Prévision TAF périmée.
Pas de NOTAMs connus pour ce terrain.
1 SIGMET publié pour la FIR Amsterdam (EHAA) :
 
Orages fréquents
EHAA SIGMET 1 VALID 221519/221819 EHDB
EHAA AMSTERDAM FIR FRQ TS OBS AT 1515Z E OF LINE N5119 E00416 - N5324 E00703 TOP FL350 MOV NE 25KT NC=



MET'MAP, la Météo Aéronautique d'un coup d'oeil ! - Copyright ORBIFLY Décembre 2007 - Disclaimer

ORBIFLY MET'MAP TEAM :

Programmation & Développement : Alexandra Zaïnal
Conception & Développement : Baudouin d'Aumeries
Co-Programmation & Développement : Marc-Olivier Méhu
Soutien technique & logistique : Manuel Goepfert

Contact : metmap@orbifly.com




SOURCES & CREDITS :

   NOAA